Página principal
METAR-TAF:

METAR-TAF

Aeroportos :

Khon Kaen, Tailândia

latitude: 16-26N, longitude: 102-50E, altura: 165 m

Observação actual do tempo

O boletim foi feito há 30 minutos, às 06:00 UTC
Vento 4 kt de su-sudeste, variando entre nordeste e sudoeste
Temperatura 36°C
Humidade 35%
Pressão 1012 hPa
Visibilidade: 8000 m

METAR: VTUK 230600Z 16004KT 050V220 8000 NSC 36/18 Q1012 NOSIG

Hora: 13:30 (06:30 UTC)

Previsão

O boletim foi feito há 1 hora e 30 minutos, às 05:00 UTC
Previsão válida de 23 às 06 UTC a 24 às 06 UTC
Vento 3 kt de este
Visibilidade: 8000 m
Tornando-se
de 23 às 21 UTC a 23 às 23 UTC
Visibilidade: 5000 m
neblina
Tornando-se
de 24 às 02 UTC a 24 às 04 UTC
Visibilidade: 7000 m

TAF: VTUK 230500Z 2306/2406 10003KT 8000 NSC BECMG 2321/2323 5000 BR BECMG 2402/2404 7000 NSW

Observações e previsões do tempo de mais de 4000 aeroportos (mensagens METAR e TAF).

As estações disponíveis são os pontos amarelos e vermelhos sobre o mapa.

Mova o rato sobre o mapa para ver o nome da estação.

Depois clique no ponto para visualizar as observações e previsões meteorológicas.

Para alterar o mapa : clique nos botões verdes com uma cruz preta para aumentar o zoom; no botão verde com uma pitada de zoom; ou nas setas verdes para mapas adjacentes.


METAR-TAF: